Time;durP1;ratioP1;P1;durP2;ratioP2;P2;SDS_P1;SDS_P2;PMS_P1;PMS_P2;Temp;Humidity;BMP_temperature;BMP_pressure;BME280_temperature;BME280_humidity;BME280_pressure;Samples;Min_cycle;Max_cycle;Signal;HPM_P1;HPM_P2
2023/12/30 00:01:30;;;;;;;28.58;21.02;;;;;;;;;;5077052;28;20110;-46
2023/12/30 00:03:56;;;;;;;25.63;19.98;;;;;;;;;;5078077;28;20032;-46
2023/12/30 00:06:21;;;;;;;25.80;20.27;;;;;;;;;;5074731;28;20040;-49
2023/12/30 00:08:46;;;;;;;27.00;21.55;;;;;;;;;;5076020;28;20140;-48
2023/12/30 00:11:12;;;;;;;27.38;19.73;;;;;;;;;;5077205;28;20104;-47
2023/12/30 00:13:38;;;;;;;27.25;21.70;;;;;;;;;;5077749;28;20123;-46
2023/12/30 00:16:04;;;;;;;29.15;25.08;;;;;;;;;;5075225;28;20103;-49
2023/12/30 00:18:29;;;;;;;27.85;22.52;;;;;;;;;;5073185;28;20123;-48
2023/12/30 00:20:54;;;;;;;28.08;22.13;;;;;;;;;;5072221;28;20099;-49
2023/12/30 00:23:20;;;;;;;26.23;21.35;;;;;;;;;;5072651;28;20040;-50
2023/12/30 00:25:46;;;;;;;29.65;21.02;;;;;;;;;;5076332;28;20490;-49
2023/12/30 00:28:12;;;;;;;27.02;19.70;;;;;;;;;;5078261;28;20101;-46
2023/12/30 00:30:37;;;;;;;26.17;18.88;;;;;;;;;;5075356;28;20036;-46
2023/12/30 00:33:03;;;;;;;25.10;19.08;;;;;;;;;;5072232;28;20381;-47
2023/12/30 00:35:29;;;;;;;23.30;20.30;;;;;;;;;;5073603;28;20059;-49
2023/12/30 00:37:54;;;;;;;24.58;18.30;;;;;;;;;;5073885;28;20032;-46
2023/12/30 00:40:20;;;;;;;21.83;17.58;;;;;;;;;;5070746;28;20044;-46
2023/12/30 00:42:45;;;;;;;25.55;20.90;;;;;;;;;;5077867;28;20142;-48
2023/12/30 00:45:11;;;;;;;27.48;20.30;;;;;;;;;;5056715;28;20040;-47
2023/12/30 00:47:36;;;;;;;26.98;21.00;;;;;;;;;;5075400;28;20020;-46
2023/12/30 00:50:02;;;;;;;23.15;19.95;;;;;;;;;;5073006;28;20036;-46
2023/12/30 00:52:28;;;;;;;28.48;20.92;;;;;;;;;;5076004;28;20462;-45
2023/12/30 00:54:54;;;;;;;25.30;20.45;;;;;;;;;;5072717;28;20049;-46
2023/12/30 00:57:20;;;;;;;25.17;19.25;;;;;;;;;;5074144;28;20035;-49
2023/12/30 00:59:45;;;;;;;25.60;19.77;;;;;;;;;;5074493;28;20090;-48
2023/12/30 01:02:10;;;;;;;27.23;21.52;;;;;;;;;;5072842;28;20062;-51
2023/12/30 01:04:36;;;;;;;26.98;21.23;;;;;;;;;;5071782;28;20055;-47
2023/12/30 01:07:01;;;;;;;23.52;19.30;;;;;;;;;;5075325;28;21010;-48
2023/12/30 01:09:26;;;;;;;23.35;18.30;;;;;;;;;;5073201;28;20040;-45
2023/12/30 01:11:52;;;;;;;23.30;17.77;;;;;;;;;;5073937;28;20024;-48
2023/12/30 01:14:17;;;;;;;24.92;17.45;;;;;;;;;;5072002;28;20052;-49
2023/12/30 01:16:43;;;;;;;23.85;18.75;;;;;;;;;;5074585;28;20029;-49
2023/12/30 01:19:08;;;;;;;27.13;18.33;;;;;;;;;;5074529;28;20044;-51
2023/12/30 01:21:33;;;;;;;21.02;17.60;;;;;;;;;;5072952;28;20027;-45
2023/12/30 01:23:59;;;;;;;20.88;18.40;;;;;;;;;;5049750;28;20041;-47
2023/12/30 01:26:24;;;;;;;22.50;17.80;;;;;;;;;;5074663;28;20024;-49
2023/12/30 01:28:49;;;;;;;26.00;20.15;;;;;;;;;;5077430;28;20417;-48
2023/12/30 01:31:17;;;;;;;22.30;18.25;;;;;;;;;;5075208;28;20462;-48
2023/12/30 01:33:42;;;;;;;21.27;17.23;;;;;;;;;;5073861;28;20490;-49
2023/12/30 01:36:08;;;;;;;24.77;18.02;;;;;;;;;;5074918;28;20123;-48
2023/12/30 01:38:33;;;;;;;21.58;17.33;;;;;;;;;;5068858;28;20493;-47
2023/12/30 01:40:59;;;;;;;22.30;17.10;;;;;;;;;;5073705;28;20029;-46
2023/12/30 01:43:26;;;;;;;21.58;16.55;;;;;;;;;;5070277;28;20146;-46
2023/12/30 01:46:04;;;;;;;21.08;16.38;;;;;;;;;;5090753;28;20024;-46
2023/12/30 01:48:30;;;;;;;22.85;17.90;;;;;;;;;;5075209;28;20036;-48
2023/12/30 01:50:57;;;;;;;21.75;16.42;;;;;;;;;;5079364;28;20016;-45
2023/12/30 01:53:26;;;;;;;21.63;16.98;;;;;;;;;;5077092;28;20120;-46
2023/12/30 01:55:52;;;;;;;21.23;16.00;;;;;;;;;;5077178;28;20402;-47
2023/12/30 01:58:20;;;;;;;22.52;17.73;;;;;;;;;;5075399;28;20082;-49
2023/12/30 02:00:54;;;;;;;22.10;16.75;;;;;;;;;;5077492;28;20023;-47
2023/12/30 02:03:21;;;;;;;21.58;17.77;;;;;;;;;;5076316;28;20794;-46
2023/12/30 02:05:47;;;;;;;21.08;16.45;;;;;;;;;;5076801;28;20032;-47
2023/12/30 02:08:14;;;;;;;20.27;16.08;;;;;;;;;;5078613;28;20044;-49
2023/12/30 02:10:40;;;;;;;21.65;16.65;;;;;;;;;;5075901;28;20088;-48
2023/12/30 02:13:05;;;;;;;23.45;17.52;;;;;;;;;;5071435;28;21179;-47
2023/12/30 02:15:31;;;;;;;24.65;16.35;;;;;;;;;;5075992;28;20514;-48
2023/12/30 02:17:56;;;;;;;20.92;16.45;;;;;;;;;;5076795;28;20020;-45
2023/12/30 02:20:23;;;;;;;22.17;16.67;;;;;;;;;;5077044;28;20515;-49
2023/12/30 02:22:49;;;;;;;22.13;17.33;;;;;;;;;;5075319;28;20024;-47
2023/12/30 02:25:15;;;;;;;20.45;15.82;;;;;;;;;;5079594;28;20098;-47
2023/12/30 02:27:42;;;;;;;23.05;17.40;;;;;;;;;;5076805;28;20462;-46
2023/12/30 02:30:08;;;;;;;24.75;16.17;;;;;;;;;;5075757;28;20060;-46
2023/12/30 02:32:33;;;;;;;21.63;16.60;;;;;;;;;;5073594;28;20060;-46
2023/12/30 02:34:59;;;;;;;21.27;16.05;;;;;;;;;;5085400;28;20035;-48
2023/12/30 02:37:24;;;;;;;19.58;15.48;;;;;;;;;;5078913;28;20025;-46
2023/12/30 02:39:50;;;;;;;21.45;15.80;;;;;;;;;;5072466;28;20040;-47
2023/12/30 02:42:15;;;;;;;20.20;15.07;;;;;;;;;;5074453;28;20020;-48
2023/12/30 02:44:41;;;;;;;19.45;13.43;;;;;;;;;;5076129;28;20032;-45
2023/12/30 02:47:06;;;;;;;18.58;15.13;;;;;;;;;;5072750;28;20033;-46
2023/12/30 02:49:33;;;;;;;18.67;14.60;;;;;;;;;;5073055;28;20069;-47
2023/12/30 02:51:59;;;;;;;19.85;15.50;;;;;;;;;;5075833;28;20020;-47
2023/12/30 02:54:25;;;;;;;18.58;15.13;;;;;;;;;;5075809;28;20044;-48
2023/12/30 02:56:50;;;;;;;17.45;14.02;;;;;;;;;;5075567;28;20458;-51
2023/12/30 02:59:15;;;;;;;16.50;13.18;;;;;;;;;;5074670;28;20587;-45
2023/12/30 03:01:41;;;;;;;18.52;14.52;;;;;;;;;;5074172;28;20451;-47
2023/12/30 03:04:06;;;;;;;14.43;12.68;;;;;;;;;;5075589;28;20742;-47
2023/12/30 03:06:32;;;;;;;17.70;13.68;;;;;;;;;;5075650;28;20553;-47
2023/12/30 03:08:57;;;;;;;16.67;12.70;;;;;;;;;;5074908;28;20461;-46
2023/12/30 03:11:23;;;;;;;15.80;14.15;;;;;;;;;;5073419;28;20073;-49
2023/12/30 03:13:49;;;;;;;16.83;13.38;;;;;;;;;;5074511;28;20070;-48
2023/12/30 03:16:15;;;;;;;16.65;12.30;;;;;;;;;;5074403;28;20588;-49
2023/12/30 03:18:41;;;;;;;14.85;12.68;;;;;;;;;;5075052;28;20032;-45
2023/12/30 03:21:08;;;;;;;17.50;12.07;;;;;;;;;;5076065;28;20043;-45
2023/12/30 03:23:35;;;;;;;16.42;12.88;;;;;;;;;;5071926;28;20040;-47
2023/12/30 03:26:00;;;;;;;17.35;12.48;;;;;;;;;;5073764;28;20059;-50
2023/12/30 03:28:26;;;;;;;18.05;11.63;;;;;;;;;;5075043;28;20040;-49
2023/12/30 03:30:52;;;;;;;21.33;12.88;;;;;;;;;;5072660;28;21365;-45
2023/12/30 03:33:17;;;;;;;18.67;13.07;;;;;;;;;;5074004;28;20167;-47
2023/12/30 03:35:43;;;;;;;17.52;13.05;;;;;;;;;;5076518;28;20051;-50
2023/12/30 03:38:08;;;;;;;15.40;12.02;;;;;;;;;;5079732;28;20036;-47
2023/12/30 03:40:34;;;;;;;17.38;12.07;;;;;;;;;;5078942;28;20055;-47
2023/12/30 03:43:00;;;;;;;15.18;11.32;;;;;;;;;;5072144;28;20029;-47
2023/12/30 03:45:25;;;;;;;16.95;11.82;;;;;;;;;;5075662;28;20080;-49
2023/12/30 03:47:52;;;;;;;15.90;11.38;;;;;;;;;;5077704;28;20028;-51
2023/12/30 03:50:18;;;;;;;14.45;11.25;;;;;;;;;;5074211;28;20048;-47
2023/12/30 03:52:44;;;;;;;16.15;11.63;;;;;;;;;;5075442;28;20073;-47
2023/12/30 03:55:09;;;;;;;14.93;11.90;;;;;;;;;;5071357;28;20056;-50
2023/12/30 03:57:34;;;;;;;16.00;12.32;;;;;;;;;;5084421;28;21732;-48
2023/12/30 04:00:00;;;;;;;17.23;11.98;;;;;;;;;;5075814;28;20441;-47
2023/12/30 04:02:26;;;;;;;20.77;12.90;;;;;;;;;;5075181;28;20378;-48
2023/12/30 04:04:51;;;;;;;15.52;11.52;;;;;;;;;;5074369;28;20453;-50
2023/12/30 04:07:17;;;;;;;13.65;10.85;;;;;;;;;;5067592;28;20491;-46
2023/12/30 04:09:42;;;;;;;15.10;11.63;;;;;;;;;;5073829;28;20086;-47
2023/12/30 04:12:09;;;;;;;15.05;10.45;;;;;;;;;;5071776;28;20027;-50
2023/12/30 04:14:34;;;;;;;15.18;12.50;;;;;;;;;;5073703;28;20059;-48
2023/12/30 04:16:59;;;;;;;13.40;12.00;;;;;;;;;;5078335;28;20024;-50
2023/12/30 04:19:25;;;;;;;15.23;11.82;;;;;;;;;;5078971;28;20036;-45
2023/12/30 04:21:51;;;;;;;13.77;11.18;;;;;;;;;;5078892;28;20039;-46
2023/12/30 04:24:18;;;;;;;15.40;11.82;;;;;;;;;;5073591;28;20033;-47
2023/12/30 04:26:44;;;;;;;14.45;11.35;;;;;;;;;;5075752;28;20032;-45
2023/12/30 04:29:10;;;;;;;14.95;11.32;;;;;;;;;;5076071;28;20071;-47
2023/12/30 04:31:35;;;;;;;14.00;10.55;;;;;;;;;;5056639;28;20024;-49
2023/12/30 04:34:01;;;;;;;14.18;11.35;;;;;;;;;;5075999;28;20043;-46
2023/12/30 04:36:26;;;;;;;13.23;11.10;;;;;;;;;;5068093;28;20082;-47
2023/12/30 04:38:52;;;;;;;13.18;11.27;;;;;;;;;;5073582;28;20086;-50
2023/12/30 04:41:17;;;;;;;13.27;10.63;;;;;;;;;;5070451;28;20028;-48
2023/12/30 04:43:42;;;;;;;13.60;10.88;;;;;;;;;;5071317;28;20100;-48
2023/12/30 04:46:09;;;;;;;15.05;11.55;;;;;;;;;;5072898;28;20021;-47
2023/12/30 04:48:35;;;;;;;14.30;11.65;;;;;;;;;;5073172;28;20070;-47
2023/12/30 04:51:00;;;;;;;15.70;11.23;;;;;;;;;;5072411;28;20054;-47
2023/12/30 04:53:26;;;;;;;14.57;12.35;;;;;;;;;;5073633;28;20060;-47
2023/12/30 04:55:51;;;;;;;12.90;10.45;;;;;;;;;;5074180;28;20203;-47
2023/12/30 04:58:17;;;;;;;14.85;11.98;;;;;;;;;;5072873;28;20029;-45
2023/12/30 05:00:42;;;;;;;15.10;12.20;;;;;;;;;;5059665;28;20028;-48
2023/12/30 05:03:08;;;;;;;13.88;11.85;;;;;;;;;;5068723;28;20460;-47
2023/12/30 05:05:33;;;;;;;13.10;10.52;;;;;;;;;;5073754;28;20046;-46
2023/12/30 05:07:59;;;;;;;14.18;11.40;;;;;;;;;;5072374;28;20059;-48
2023/12/30 05:10:24;;;;;;;15.30;11.65;;;;;;;;;;5087034;28;20024;-48
2023/12/30 05:12:50;;;;;;;16.23;12.68;;;;;;;;;;5074017;28;20063;-44
2023/12/30 05:15:15;;;;;;;16.20;11.68;;;;;;;;;;5071240;28;20036;-45
2023/12/30 05:17:41;;;;;;;16.45;11.20;;;;;;;;;;5078925;28;20036;-49
2023/12/30 05:20:08;;;;;;;16.80;11.65;;;;;;;;;;5075595;28;20040;-46
2023/12/30 05:22:34;;;;;;;16.40;13.02;;;;;;;;;;5076398;28;20055;-47
2023/12/30 05:25:00;;;;;;;16.05;11.48;;;;;;;;;;5076420;28;20119;-49
2023/12/30 05:27:25;;;;;;;15.00;11.73;;;;;;;;;;5077853;28;20047;-47
2023/12/30 05:29:51;;;;;;;13.52;10.80;;;;;;;;;;5077350;28;20082;-46
2023/12/30 05:32:16;;;;;;;13.50;10.43;;;;;;;;;;5078902;28;20833;-47
2023/12/30 05:34:41;;;;;;;12.32;11.13;;;;;;;;;;5054355;28;20110;-47
2023/12/30 05:37:07;;;;;;;13.30;11.25;;;;;;;;;;5073763;28;20024;-45
2023/12/30 05:39:33;;;;;;;12.13;10.35;;;;;;;;;;5091052;28;20059;-45
2023/12/30 05:41:58;;;;;;;11.52;10.40;;;;;;;;;;5079432;28;20020;-44
2023/12/30 05:44:24;;;;;;;12.93;9.90;;;;;;;;;;5077561;28;20628;-45
2023/12/30 05:46:51;;;;;;;13.43;11.13;;;;;;;;;;5076732;28;20028;-45
2023/12/30 05:49:16;;;;;;;11.88;10.63;;;;;;;;;;5079089;28;20105;-46
2023/12/30 05:51:45;;;;;;;12.30;10.25;;;;;;;;;;5076425;28;20020;-49
2023/12/30 05:54:10;;;;;;;11.90;10.57;;;;;;;;;;5078030;28;20418;-48
2023/12/30 05:56:35;;;;;;;13.85;12.32;;;;;;;;;;5075010;28;20021;-48
2023/12/30 05:59:01;;;;;;;12.85;10.80;;;;;;;;;;5077414;28;20033;-47
2023/12/30 06:01:27;;;;;;;19.65;14.63;;;;;;;;;;5082017;28;20783;-49
2023/12/30 06:03:52;;;;;;;25.00;15.15;;;;;;;;;;5079109;28;20060;-47
2023/12/30 06:06:17;;;;;;;19.40;12.43;;;;;;;;;;5075717;28;20414;-48
2023/12/30 06:08:43;;;;;;;21.13;13.80;;;;;;;;;;5078512;28;20045;-49
2023/12/30 06:11:08;;;;;;;15.18;12.50;;;;;;;;;;5076499;28;20067;-45
2023/12/30 06:13:34;;;;;;;18.80;13.35;;;;;;;;;;5080899;28;20402;-49
2023/12/30 06:16:00;;;;;;;16.23;12.85;;;;;;;;;;5080120;28;20025;-46
2023/12/30 06:18:31;;;;;;;20.55;12.85;;;;;;;;;;5079028;28;20036;-46
2023/12/30 06:20:58;;;;;;;20.30;14.35;;;;;;;;;;5082720;28;20028;-44
2023/12/30 06:23:24;;;;;;;18.90;12.02;;;;;;;;;;5075859;28;20040;-45
2023/12/30 06:25:49;;;;;;;19.35;15.30;;;;;;;;;;5075470;28;20103;-46
2023/12/30 06:28:14;;;;;;;19.55;14.82;;;;;;;;;;5075024;28;20052;-44
2023/12/30 06:30:40;;;;;;;17.60;14.13;;;;;;;;;;5077613;28;20017;-48
2023/12/30 06:33:08;;;;;;;16.55;13.73;;;;;;;;;;5074780;28;20029;-47
2023/12/30 06:35:34;;;;;;;15.85;12.70;;;;;;;;;;5076888;28;20035;-46
2023/12/30 06:38:00;;;;;;;18.08;13.13;;;;;;;;;;5086645;28;20024;-45
2023/12/30 06:40:26;;;;;;;14.00;11.07;;;;;;;;;;5070622;28;20095;-48
2023/12/30 06:42:52;;;;;;;13.85;10.90;;;;;;;;;;5077573;28;20050;-45
2023/12/30 06:45:17;;;;;;;11.70;10.25;;;;;;;;;;5081935;28;20040;-47
2023/12/30 06:47:43;;;;;;;15.23;10.60;;;;;;;;;;5080231;28;20039;-46
2023/12/30 06:50:11;;;;;;;10.75;9.73;;;;;;;;;;5067699;28;20108;-46
2023/12/30 06:52:36;;;;;;;10.18;8.32;;;;;;;;;;5071376;28;20450;-46
2023/12/30 06:55:01;;;;;;;10.75;9.20;;;;;;;;;;5074924;28;20059;-46
2023/12/30 06:57:27;;;;;;;11.85;8.75;;;;;;;;;;5075966;28;20025;-46
2023/12/30 06:59:52;;;;;;;10.88;9.27;;;;;;;;;;5077403;28;20041;-46
2023/12/30 07:02:18;;;;;;;10.32;9.32;;;;;;;;;;5078950;28;20039;-50
2023/12/30 07:04:43;;;;;;;9.38;8.10;;;;;;;;;;5073065;28;20405;-50
2023/12/30 07:07:09;;;;;;;8.02;7.22;;;;;;;;;;5074936;28;20052;-47
2023/12/30 07:09:34;;;;;;;7.88;7.05;;;;;;;;;;5060360;28;20506;-50
2023/12/30 07:12:00;;;;;;;10.15;8.52;;;;;;;;;;5073136;28;20119;-45
2023/12/30 07:14:25;;;;;;;9.43;8.30;;;;;;;;;;5075114;28;20055;-47
2023/12/30 07:16:50;;;;;;;9.32;7.88;;;;;;;;;;5075325;28;20040;-48
2023/12/30 07:19:16;;;;;;;8.48;7.55;;;;;;;;;;5071443;28;20052;-46
2023/12/30 07:21:42;;;;;;;9.07;7.68;;;;;;;;;;5073096;28;20050;-44
2023/12/30 07:24:07;;;;;;;10.45;9.38;;;;;;;;;;5073410;28;20042;-48
2023/12/30 07:26:33;;;;;;;8.77;7.88;;;;;;;;;;5074557;28;20115;-47
2023/12/30 07:28:59;;;;;;;9.07;8.20;;;;;;;;;;5074406;28;20089;-47
2023/12/30 07:31:25;;;;;;;9.73;8.52;;;;;;;;;;5073549;28;20470;-47
2023/12/30 07:33:51;;;;;;;8.98;7.75;;;;;;;;;;5072546;28;20048;-48
2023/12/30 07:36:16;;;;;;;9.60;8.25;;;;;;;;;;5075959;28;20021;-46
2023/12/30 07:38:42;;;;;;;8.30;7.40;;;;;;;;;;5074007;28;20047;-46
2023/12/30 07:41:07;;;;;;;9.85;8.40;;;;;;;;;;5090687;28;20032;-49
2023/12/30 07:43:33;;;;;;;8.05;7.13;;;;;;;;;;5075821;28;20060;-47
2023/12/30 07:45:58;;;;;;;9.15;8.25;;;;;;;;;;5074878;28;20028;-47
2023/12/30 07:48:24;;;;;;;8.95;8.13;;;;;;;;;;5077385;28;20040;-45
2023/12/30 07:50:49;;;;;;;13.77;10.80;;;;;;;;;;5068331;28;20029;-46
2023/12/30 07:53:14;;;;;;;11.93;9.13;;;;;;;;;;5073638;28;20418;-46
2023/12/30 07:55:40;;;;;;;12.73;8.68;;;;;;;;;;5074626;28;20033;-46
2023/12/30 07:58:05;;;;;;;10.30;7.50;;;;;;;;;;5090390;28;20028;-47
2023/12/30 08:00:31;;;;;;;7.82;6.90;;;;;;;;;;5072019;28;20077;-47
2023/12/30 08:02:56;;;;;;;8.20;7.40;;;;;;;;;;5074927;28;20028;-46
2023/12/30 08:05:21;;;;;;;9.98;7.57;;;;;;;;;;5072867;28;20109;-44
2023/12/30 08:07:47;;;;;;;11.75;7.40;;;;;;;;;;5074653;28;20030;-48
2023/12/30 08:10:12;;;;;;;8.50;6.70;;;;;;;;;;5075317;28;20521;-47
2023/12/30 08:12:38;;;;;;;8.10;6.93;;;;;;;;;;5080887;28;20373;-47
2023/12/30 08:15:04;;;;;;;8.45;6.78;;;;;;;;;;5072374;28;20033;-45
2023/12/30 08:17:30;;;;;;;8.85;6.90;;;;;;;;;;5074524;28;20024;-45
2023/12/30 08:19:56;;;;;;;8.32;6.85;;;;;;;;;;5071070;28;20037;-45
2023/12/30 08:22:23;;;;;;;7.90;7.05;;;;;;;;;;5074718;28;20263;-46
2023/12/30 08:24:50;;;;;;;9.07;7.10;;;;;;;;;;5073349;28;20483;-47
2023/12/30 08:27:15;;;;;;;8.98;7.75;;;;;;;;;;5076906;28;20029;-45
2023/12/30 08:29:41;;;;;;;10.15;7.85;;;;;;;;;;5073098;28;20040;-47
2023/12/30 08:32:06;;;;;;;7.82;6.63;;;;;;;;;;5071780;28;20130;-44
2023/12/30 08:34:32;;;;;;;9.05;7.10;;;;;;;;;;5072638;28;20406;-44
2023/12/30 08:36:58;;;;;;;20.20;11.30;;;;;;;;;;5078700;28;20020;-44
2023/12/30 08:39:25;;;;;;;12.90;8.57;;;;;;;;;;5071217;28;20071;-49
2023/12/30 08:41:51;;;;;;;9.10;6.68;;;;;;;;;;5081699;28;20036;-44
2023/12/30 08:44:16;;;;;;;8.18;6.93;;;;;;;;;;5075231;28;20049;-47
2023/12/30 08:46:41;;;;;;;10.65;8.00;;;;;;;;;;5074386;28;20028;-46
2023/12/30 08:49:07;;;;;;;8.32;6.95;;;;;;;;;;5072692;28;20588;-45
2023/12/30 08:51:32;;;;;;;7.78;6.82;;;;;;;;;;5074376;28;20039;-47
2023/12/30 08:53:58;;;;;;;8.68;7.68;;;;;;;;;;5070712;28;20544;-45
2023/12/30 08:56:23;;;;;;;8.93;6.93;;;;;;;;;;5066578;28;20099;-46
2023/12/30 08:58:49;;;;;;;9.88;6.93;;;;;;;;;;5072970;28;20438;-50
2023/12/30 09:01:15;;;;;;;10.43;8.27;;;;;;;;;;5066764;28;20028;-49
2023/12/30 09:03:40;;;;;;;8.93;7.53;;;;;;;;;;5070870;28;20207;-48
2023/12/30 09:06:06;;;;;;;10.68;6.85;;;;;;;;;;5072216;28;20486;-48
2023/12/30 09:08:31;;;;;;;8.68;7.78;;;;;;;;;;5071569;28;20555;-45
2023/12/30 09:10:57;;;;;;;9.80;7.18;;;;;;;;;;5074507;28;20025;-48
2023/12/30 09:13:23;;;;;;;9.98;8.45;;;;;;;;;;5073410;28;20033;-49
2023/12/30 09:15:48;;;;;;;10.73;7.93;;;;;;;;;;5080864;28;20470;-47
2023/12/30 09:18:14;;;;;;;9.38;6.70;;;;;;;;;;5072628;28;20055;-48
2023/12/30 09:20:39;;;;;;;10.38;7.20;;;;;;;;;;5075056;28;20028;-46
2023/12/30 09:23:05;;;;;;;7.97;6.95;;;;;;;;;;5075079;28;20012;-48
2023/12/30 09:25:30;;;;;;;10.50;8.15;;;;;;;;;;5081155;28;20036;-49
2023/12/30 09:27:55;;;;;;;9.70;7.65;;;;;;;;;;5075772;28;20576;-47
2023/12/30 09:30:21;;;;;;;11.65;10.45;;;;;;;;;;5079242;28;20032;-47
2023/12/30 09:32:47;;;;;;;12.35;8.82;;;;;;;;;;5071181;28;20062;-49
2023/12/30 09:35:13;;;;;;;11.25;9.77;;;;;;;;;;5070121;28;20041;-47
2023/12/30 09:37:38;;;;;;;12.27;9.93;;;;;;;;;;5071155;28;20032;-47
2023/12/30 09:40:04;;;;;;;12.13;10.10;;;;;;;;;;5075127;28;20032;-50
2023/12/30 09:42:30;;;;;;;12.00;10.75;;;;;;;;;;5086045;28;20016;-45
2023/12/30 09:44:58;;;;;;;12.27;9.77;;;;;;;;;;5054724;28;20060;-46
2023/12/30 09:47:24;;;;;;;10.38;9.18;;;;;;;;;;5081532;28;20024;-45
2023/12/30 09:49:50;;;;;;;9.98;8.95;;;;;;;;;;5083529;28;20062;-50
2023/12/30 09:52:15;;;;;;;10.90;9.85;;;;;;;;;;5073162;28;20025;-49
2023/12/30 09:54:41;;;;;;;9.90;8.63;;;;;;;;;;5079870;28;20028;-49
2023/12/30 09:57:06;;;;;;;11.15;9.95;;;;;;;;;;5086739;28;20031;-45
2023/12/30 09:59:40;;;;;;;11.10;9.18;;;;;;;;;;5073781;28;20459;-48
2023/12/30 10:02:09;;;;;;;11.65;10.48;;;;;;;;;;5065405;28;20055;-46
2023/12/30 10:04:35;;;;;;;11.75;10.63;;;;;;;;;;5071901;28;20044;-45
2023/12/30 10:07:01;;;;;;;13.57;11.13;;;;;;;;;;5078630;28;20024;-46
2023/12/30 10:09:28;;;;;;;12.77;11.05;;;;;;;;;;5080997;28;20461;-47
2023/12/30 10:11:54;;;;;;;12.82;10.95;;;;;;;;;;5073126;28;20634;-49
2023/12/30 10:14:19;;;;;;;14.27;10.82;;;;;;;;;;5076770;28;20068;-47
2023/12/30 10:16:45;;;;;;;14.13;10.68;;;;;;;;;;5074176;28;20021;-49
2023/12/30 10:19:13;;;;;;;15.50;11.60;;;;;;;;;;5074560;28;20044;-46
2023/12/30 10:21:38;;;;;;;15.50;12.77;;;;;;;;;;5077587;28;20024;-47
2023/12/30 10:24:04;;;;;;;12.77;9.63;;;;;;;;;;5081201;28;20044;-45
2023/12/30 10:26:31;;;;;;;12.25;9.80;;;;;;;;;;5077590;28;20027;-47
2023/12/30 10:28:57;;;;;;;10.23;8.77;;;;;;;;;;5076062;28;20040;-51
2023/12/30 10:31:23;;;;;;;9.07;7.95;;;;;;;;;;5076649;28;20032;-46
2023/12/30 10:33:50;;;;;;;9.23;7.30;;;;;;;;;;5075739;28;20036;-47
2023/12/30 10:36:17;;;;;;;17.92;7.90;;;;;;;;;;5070412;28;20047;-48
2023/12/30 10:38:43;;;;;;;9.02;7.30;;;;;;;;;;5074608;28;20549;-46
2023/12/30 10:41:09;;;;;;;8.45;6.65;;;;;;;;;;5085596;28;20059;-45
2023/12/30 10:43:34;;;;;;;9.32;8.43;;;;;;;;;;5076575;28;20036;-46
2023/12/30 10:46:01;;;;;;;8.38;7.63;;;;;;;;;;5089417;28;20072;-45
2023/12/30 10:48:31;;;;;;;8.65;6.10;;;;;;;;;;5075923;28;20036;-45
2023/12/30 10:50:59;;;;;;;7.13;6.20;;;;;;;;;;5070567;28;20020;-46
2023/12/30 10:53:44;;;;;;;7.80;6.93;;;;;;;;;;5075250;28;20036;-46
2023/12/30 10:56:11;;;;;;;8.20;5.53;;;;;;;;;;5069885;28;20020;-49
2023/12/30 10:58:39;;;;;;;6.50;5.32;;;;;;;;;;5076753;28;20028;-51
2023/12/30 11:01:05;;;;;;;8.00;5.63;;;;;;;;;;5075477;28;20133;-48
2023/12/30 11:03:32;;;;;;;7.05;5.22;;;;;;;;;;5080591;28;20093;-52
2023/12/30 11:06:34;;;;;;;6.22;5.63;;;;;;;;;;5070844;28;20032;-48
2023/12/30 11:09:06;;;;;;;5.55;4.80;;;;;;;;;;5047325;28;20100;-46
2023/12/30 11:11:32;;;;;;;8.32;5.20;;;;;;;;;;5076334;28;20059;-49
2023/12/30 11:13:58;;;;;;;5.35;4.25;;;;;;;;;;5078548;28;20067;-49
2023/12/30 11:16:23;;;;;;;5.32;4.65;;;;;;;;;;5076210;28;20024;-47
2023/12/30 11:18:53;;;;;;;5.45;4.55;;;;;;;;;;5080418;28;20043;-47
2023/12/30 11:21:32;;;;;;;5.80;4.15;;;;;;;;;;5074701;28;20110;-48
2023/12/30 11:24:02;;;;;;;6.75;4.72;;;;;;;;;;5074473;28;20074;-47
2023/12/30 11:26:31;;;;;;;6.05;4.85;;;;;;;;;;5074276;28;20454;-44
2023/12/30 11:29:02;;;;;;;9.40;7.20;;;;;;;;;;5075643;28;20032;-44
2023/12/30 11:31:34;;;;;;;19.17;15.85;;;;;;;;;;5074365;28;20378;-47
2023/12/30 11:34:00;;;;;;;24.23;19.23;;;;;;;;;;5075702;28;20036;-46
2023/12/30 11:36:27;;;;;;;27.15;20.98;;;;;;;;;;5074407;28;20021;-47
2023/12/30 11:38:55;;;;;;;29.88;23.20;;;;;;;;;;5075767;28;20051;-50
2023/12/30 11:41:22;;;;;;;29.55;23.95;;;;;;;;;;5075336;28;20040;-49
2023/12/30 11:43:48;;;;;;;25.27;19.08;;;;;;;;;;5084249;28;20482;-50
2023/12/30 11:46:13;;;;;;;21.25;18.70;;;;;;;;;;5066088;28;20051;-46
2023/12/30 11:48:42;;;;;;;22.00;18.15;;;;;;;;;;5075431;28;20039;-45
2023/12/30 11:51:08;;;;;;;24.05;18.88;;;;;;;;;;5074447;28;20059;-49
2023/12/30 11:53:37;;;;;;;25.73;20.98;;;;;;;;;;5072355;28;20056;-46
2023/12/30 11:56:03;;;;;;;23.73;18.50;;;;;;;;;;5075903;28;20024;-48
2023/12/30 11:58:29;;;;;;;22.65;19.23;;;;;;;;;;5074531;28;20043;-47
2023/12/30 12:00:55;;;;;;;25.25;19.88;;;;;;;;;;5075409;28;20024;-48
2023/12/30 12:03:20;;;;;;;22.65;16.35;;;;;;;;;;5071475;28;20029;-46
2023/12/30 12:05:46;;;;;;;17.20;14.35;;;;;;;;;;5079604;28;20467;-47
2023/12/30 12:08:11;;;;;;;18.65;16.25;;;;;;;;;;5074933;28;20066;-48
2023/12/30 12:10:37;;;;;;;16.63;14.20;;;;;;;;;;5075776;28;20035;-50
2023/12/30 12:13:05;;;;;;;15.88;12.38;;;;;;;;;;5075241;28;20085;-49
2023/12/30 12:15:32;;;;;;;13.70;11.63;;;;;;;;;;5075123;28;20036;-45
2023/12/30 12:17:58;;;;;;;14.18;10.63;;;;;;;;;;5074125;28;20101;-48
2023/12/30 12:20:24;;;;;;;12.52;10.30;;;;;;;;;;5080223;28;20055;-47
2023/12/30 12:22:55;;;;;;;14.05;11.52;;;;;;;;;;5080648;28;20021;-46
2023/12/30 12:25:24;;;;;;;12.30;10.77;;;;;;;;;;5075638;28;20098;-49
2023/12/30 12:27:50;;;;;;;;;;;;;;;;;;5078490;28;20504;-48
2023/12/30 12:30:16;;;;;;;14.98;10.27;;;;;;;;;;5080051;28;19912;-45
2023/12/30 12:32:41;;;;;;;16.02;12.18;;;;;;;;;;5084689;28;20030;-44
2023/12/30 12:35:07;;;;;;;13.95;12.02;;;;;;;;;;5076949;28;20044;-47
2023/12/30 12:37:32;;;;;;;13.63;11.35;;;;;;;;;;5078561;28;20458;-44
2023/12/30 12:39:58;;;;;;;13.63;10.80;;;;;;;;;;5075280;28;20047;-45
2023/12/30 12:42:25;;;;;;;14.43;11.60;;;;;;;;;;5079246;28;20058;-47
2023/12/30 12:44:50;;;;;;;14.57;12.82;;;;;;;;;;5071415;28;20064;-45
2023/12/30 12:47:16;;;;;;;17.42;13.13;;;;;;;;;;5078677;28;20359;-45
2023/12/30 12:49:42;;;;;;;16.05;12.52;;;;;;;;;;5083073;28;20228;-48
2023/12/30 12:52:08;;;;;;;14.88;12.38;;;;;;;;;;5078247;28;20059;-45
2023/12/30 12:54:34;;;;;;;16.63;12.90;;;;;;;;;;5074329;28;20044;-46
2023/12/30 12:57:00;;;;;;;11.90;10.07;;;;;;;;;;5078136;28;20548;-46
2023/12/30 12:59:25;;;;;;;15.88;10.98;;;;;;;;;;5071924;28;20048;-45
2023/12/30 13:01:51;;;;;;;11.82;9.32;;;;;;;;;;5077408;28;20035;-46
2023/12/30 13:04:17;;;;;;;12.20;9.45;;;;;;;;;;5079186;28;20522;-45
2023/12/30 13:06:42;;;;;;;12.32;9.15;;;;;;;;;;5077332;28;20432;-46
2023/12/30 13:09:33;;;;;;;12.57;9.77;;;;;;;;;;5069109;28;20057;-44
2023/12/30 13:11:56;;;;;;;10.93;8.65;;;;;;;;;;5073475;28;20032;-44
2023/12/30 13:14:26;;;;;;;10.45;8.07;;;;;;;;;;5074080;28;20082;-49
2023/12/30 13:16:52;;;;;;;11.15;8.13;;;;;;;;;;5086186;28;20524;-49
2023/12/30 13:19:18;;;;;;;9.32;7.30;;;;;;;;;;5078869;28;20041;-46
2023/12/30 13:21:43;;;;;;;10.25;9.25;;;;;;;;;;5079022;28;20036;-43
2023/12/30 13:24:11;;;;;;;12.30;8.93;;;;;;;;;;5072152;28;20036;-45
2023/12/30 13:26:37;;;;;;;12.05;9.40;;;;;;;;;;5072748;28;20107;-46
2023/12/30 13:29:02;;;;;;;13.13;10.55;;;;;;;;;;5077134;28;20100;-47
2023/12/30 13:31:28;;;;;;;12.38;8.63;;;;;;;;;;5072252;28;20024;-43
2023/12/30 13:33:54;;;;;;;8.40;7.53;;;;;;;;;;5090867;28;20044;-43
2023/12/30 13:36:20;;;;;;;10.43;9.05;;;;;;;;;;5077356;28;20035;-47
2023/12/30 13:38:52;;;;;;;15.63;12.73;;;;;;;;;;5076973;28;20032;-45
2023/12/30 13:41:22;;;;;;;12.82;11.18;;;;;;;;;;5077069;28;20408;-47
2023/12/30 13:43:51;;;;;;;13.20;10.13;;;;;;;;;;5082759;28;20513;-47
2023/12/30 13:46:30;;;;;;;14.27;11.48;;;;;;;;;;5076976;28;20035;-48
2023/12/30 13:51:36;;;;;;;14.65;12.48;;;;;;;;;;5067496;28;20101;-47
2023/12/30 13:54:03;;;;;;;21.05;14.23;;;;;;;;;;5077348;28;20047;-46
2023/12/30 13:56:34;;;;;;;17.98;13.32;;;;;;;;;;5077304;28;20048;-47
2023/12/30 13:59:01;;;;;;;13.10;10.93;;;;;;;;;;5076703;28;20036;-45
2023/12/30 14:01:26;;;;;;;18.13;14.13;;;;;;;;;;5077747;28;20035;-46
2023/12/30 14:03:52;;;;;;;13.88;12.20;;;;;;;;;;5080431;28;20052;-47
2023/12/30 14:06:21;;;;;;;11.85;10.65;;;;;;;;;;5080239;28;20172;-47
2023/12/30 14:08:48;;;;;;;12.80;10.93;;;;;;;;;;5074379;28;20422;-47
2023/12/30 14:13:58;;;;;;;15.10;11.68;;;;;;;;;;5077465;28;20047;-48
2023/12/30 14:16:24;;;;;;;13.65;11.65;;;;;;;;;;5076471;28;20020;-48
2023/12/30 14:18:50;;;;;;;14.32;12.77;;;;;;;;;;5080630;28;20048;-45
2023/12/30 14:21:16;;;;;;;14.43;12.38;;;;;;;;;;5077548;28;20020;-46
2023/12/30 14:23:42;;;;;;;16.67;12.80;;;;;;;;;;5079112;28;20998;-47